Tokyo International Airport
RJTT : now visible

Airfield :











YOU CAN JOIN US ON...

 
LOGIN :

Register | Disclaimer

   EN    FR    IT 

 









Legend :    VFR   Marginal VFR   IFR   Intensive IFR   Very Intensive IFR
Visi :
Ceiling :
>= 8 km
>= 3000ft
5 to 8 km
1000 to 3000 ft
1500m to 5 km
500 to 1000 ft
800 to 1500m
200 to 500 ft
< 800m
< 200 ft
Symbols :   Thunderstorms  Fog  Heavy snow  Heavy precipitations  Wind > 20 kt






- Airport Elevation : 35 ft
- IATA code : HND


RJTT - Tokyo International

CURRENT METAR :
  • 180400Z 07008KT 9999 FEW030 10/M03 Q1009 BECMG TL0430 31008KT RMK 1CU030 A2982 ROUGH AIR OBS AT 0336Z 2000FT BY B763

EXPIRED METARs :
  • 180330Z 11008KT 080V140 9999 FEW030 SCT100 10/M03 Q1009 BECMG TL0400 31008KT RMK 1CU030 4AC100 A2982
  • 180300Z 11009KT 9999 FEW030 BKN090 10/M03 Q1010 BECMG 31008KT RMK 1CU030 6AC090 A2983
  • 180230Z 13008KT 100V160 9999 FEW030 SCT100 11/M04 Q1010 BECMG 30006KT
  • 180200Z 17010KT 9999 FEW030 10/M03 Q1010 BECMG 30006KT RMK 1CU030 A2985
  • 180130Z 13006KT 9999 FEW030 10/M07 Q1010 BECMG 30006KT RMK 1CU030 A2985

TAF TAF RJTT
Valid from the 18 at 00:00 until the 19 at 06:00 UTC


172305Z 1800/1906 25005KT 9999 FEW030
BECMG 1803/1805 34012KT
BECMG 1900/1903 04006KT
BECMG 1903/1906 15006KT



MET'MAP, your aeronautical weather chart ! - Copyright ORBIFLY December 2007 - Disclaimer

ORBIFLY MET'MAP TEAM :

Programming & Development : Alexandra Zaïnal
Concept & original design : Baudouin d'Aumeries
Assistance for programming : Marc-Olivier Méhu
Technical & hardware support : Manuel Goepfert

Contact : metmap@orbifly.com




SOURCES & CREDITS :

   NOAA       Earth
Advisory